sensor_id;sensor_type;location;lat;lon;timestamp;P1;durP1;ratioP1;P2;durP2;ratioP2
12048;SDS011;6085;49.452;8.502;2023-07-02T00:02:34;3.88;;;2.67;;
12048;SDS011;6085;49.452;8.502;2023-07-02T00:06:37;2.30;;;2.08;;
12048;SDS011;6085;49.452;8.502;2023-07-02T00:10:40;2.45;;;2.10;;
12048;SDS011;6085;49.452;8.502;2023-07-02T00:14:44;2.88;;;2.20;;
12048;SDS011;6085;49.452;8.502;2023-07-02T00:18:46;3.25;;;2.28;;
12048;SDS011;6085;49.452;8.502;2023-07-02T00:22:52;2.25;;;2.00;;
12048;SDS011;6085;49.452;8.502;2023-07-02T00:26:54;1.92;;;1.83;;
12048;SDS011;6085;49.452;8.502;2023-07-02T00:30:58;1.92;;;1.70;;
12048;SDS011;6085;49.452;8.502;2023-07-02T00:35:01;1.83;;;1.67;;
12048;SDS011;6085;49.452;8.502;2023-07-02T00:39:03;3.38;;;1.90;;
12048;SDS011;6085;49.452;8.502;2023-07-02T00:43:05;2.30;;;1.67;;
12048;SDS011;6085;49.452;8.502;2023-07-02T00:47:14;2.42;;;2.10;;
12048;SDS011;6085;49.452;8.502;2023-07-02T00:51:18;3.38;;;2.00;;
12048;SDS011;6085;49.452;8.502;2023-07-02T00:55:21;3.33;;;2.05;;
12048;SDS011;6085;49.452;8.502;2023-07-02T00:59:23;4.45;;;2.28;;
12048;SDS011;6085;49.452;8.502;2023-07-02T01:03:27;2.63;;;1.70;;
12048;SDS011;6085;49.452;8.502;2023-07-02T01:07:33;2.55;;;1.90;;
12048;SDS011;6085;49.452;8.502;2023-07-02T01:11:36;2.42;;;2.20;;
12048;SDS011;6085;49.452;8.502;2023-07-02T01:15:41;4.35;;;2.10;;
12048;SDS011;6085;49.452;8.502;2023-07-02T01:19:47;3.42;;;2.10;;
12048;SDS011;6085;49.452;8.502;2023-07-02T01:23:51;3.25;;;2.00;;
12048;SDS011;6085;49.452;8.502;2023-07-02T01:27:53;2.28;;;1.80;;
12048;SDS011;6085;49.452;8.502;2023-07-02T01:31:55;2.53;;;1.95;;
12048;SDS011;6085;49.452;8.502;2023-07-02T01:35:59;1.90;;;1.80;;
12048;SDS011;6085;49.452;8.502;2023-07-02T01:40:01;2.15;;;1.90;;
12048;SDS011;6085;49.452;8.502;2023-07-02T01:44:06;2.45;;;1.90;;
12048;SDS011;6085;49.452;8.502;2023-07-02T01:48:08;2.17;;;1.70;;
12048;SDS011;6085;49.452;8.502;2023-07-02T01:52:11;2.78;;;1.85;;
12048;SDS011;6085;49.452;8.502;2023-07-02T01:56:13;3.72;;;1.98;;
12048;SDS011;6085;49.452;8.502;2023-07-02T02:00:15;2.40;;;2.10;;
12048;SDS011;6085;49.452;8.502;2023-07-02T02:04:17;2.10;;;1.90;;
12048;SDS011;6085;49.452;8.502;2023-07-02T02:08:21;2.15;;;1.70;;
12048;SDS011;6085;49.452;8.502;2023-07-02T02:12:23;3.90;;;2.03;;
12048;SDS011;6085;49.452;8.502;2023-07-02T02:16:25;3.15;;;2.17;;
12048;SDS011;6085;49.452;8.502;2023-07-02T02:20:27;4.13;;;2.67;;
12048;SDS011;6085;49.452;8.502;2023-07-02T02:24:30;4.80;;;2.80;;
12048;SDS011;6085;49.452;8.502;2023-07-02T02:28:32;4.70;;;2.80;;
12048;SDS011;6085;49.452;8.502;2023-07-02T02:32:34;6.10;;;3.25;;
12048;SDS011;6085;49.452;8.502;2023-07-02T02:36:37;5.97;;;3.60;;
12048;SDS011;6085;49.452;8.502;2023-07-02T02:40:40;4.22;;;3.45;;
12048;SDS011;6085;49.452;8.502;2023-07-02T02:44:42;7.38;;;4.05;;
12048;SDS011;6085;49.452;8.502;2023-07-02T02:48:44;7.18;;;3.88;;
12048;SDS011;6085;49.452;8.502;2023-07-02T02:52:46;7.85;;;3.88;;
12048;SDS011;6085;49.452;8.502;2023-07-02T02:56:50;5.53;;;4.07;;
12048;SDS011;6085;49.452;8.502;2023-07-02T03:00:52;5.38;;;4.40;;
12048;SDS011;6085;49.452;8.502;2023-07-02T03:04:54;6.47;;;3.90;;
12048;SDS011;6085;49.452;8.502;2023-07-02T03:08:57;6.43;;;4.35;;
12048;SDS011;6085;49.452;8.502;2023-07-02T03:13:00;6.90;;;4.30;;
12048;SDS011;6085;49.452;8.502;2023-07-02T03:17:02;5.30;;;4.10;;
12048;SDS011;6085;49.452;8.502;2023-07-02T03:21:04;5.20;;;4.13;;
12048;SDS011;6085;49.452;8.502;2023-07-02T03:25:07;6.22;;;3.78;;
12048;SDS011;6085;49.452;8.502;2023-07-02T03:29:11;6.15;;;4.32;;
12048;SDS011;6085;49.452;8.502;2023-07-02T03:33:13;5.78;;;4.43;;
12048;SDS011;6085;49.452;8.502;2023-07-02T03:37:16;6.95;;;4.22;;
12048;SDS011;6085;49.452;8.502;2023-07-02T03:41:18;4.20;;;3.72;;
12048;SDS011;6085;49.452;8.502;2023-07-02T03:45:21;4.55;;;3.90;;
12048;SDS011;6085;49.452;8.502;2023-07-02T03:49:23;6.97;;;4.15;;
12048;SDS011;6085;49.452;8.502;2023-07-02T03:53:25;6.85;;;4.10;;
12048;SDS011;6085;49.452;8.502;2023-07-02T03:57:27;6.80;;;4.22;;
12048;SDS011;6085;49.452;8.502;2023-07-02T04:01:31;5.22;;;3.83;;
12048;SDS011;6085;49.452;8.502;2023-07-02T04:05:34;5.68;;;4.30;;
12048;SDS011;6085;49.452;8.502;2023-07-02T04:09:36;6.65;;;4.00;;
12048;SDS011;6085;49.452;8.502;2023-07-02T04:13:38;6.45;;;3.83;;
12048;SDS011;6085;49.452;8.502;2023-07-02T04:17:42;7.43;;;4.30;;
12048;SDS011;6085;49.452;8.502;2023-07-02T04:21:44;6.68;;;4.43;;
12048;SDS011;6085;49.452;8.502;2023-07-02T04:25:46;6.05;;;3.97;;
12048;SDS011;6085;49.452;8.502;2023-07-02T04:29:48;5.82;;;3.90;;
12048;SDS011;6085;49.452;8.502;2023-07-02T04:33:52;6.03;;;4.35;;
12048;SDS011;6085;49.452;8.502;2023-07-02T04:37:54;6.00;;;4.38;;
12048;SDS011;6085;49.452;8.502;2023-07-02T04:41:57;6.68;;;4.55;;
12048;SDS011;6085;49.452;8.502;2023-07-02T04:45:59;7.40;;;4.18;;
12048;SDS011;6085;49.452;8.502;2023-07-02T04:50:03;7.85;;;4.47;;
12048;SDS011;6085;49.452;8.502;2023-07-02T04:54:06;7.57;;;4.88;;
12048;SDS011;6085;49.452;8.502;2023-07-02T04:58:08;8.63;;;5.15;;
12048;SDS011;6085;49.452;8.502;2023-07-02T05:02:10;8.05;;;5.13;;
12048;SDS011;6085;49.452;8.502;2023-07-02T05:06:13;11.38;;;5.30;;
12048;SDS011;6085;49.452;8.502;2023-07-02T05:10:15;7.90;;;5.63;;
12048;SDS011;6085;49.452;8.502;2023-07-02T05:14:17;5.93;;;5.10;;
12048;SDS011;6085;49.452;8.502;2023-07-02T05:18:19;9.13;;;5.72;;
12048;SDS011;6085;49.452;8.502;2023-07-02T05:22:23;8.35;;;5.50;;
12048;SDS011;6085;49.452;8.502;2023-07-02T05:26:24;10.50;;;5.97;;
12048;SDS011;6085;49.452;8.502;2023-07-02T05:30:27;7.93;;;5.45;;
12048;SDS011;6085;49.452;8.502;2023-07-02T05:34:29;9.05;;;5.75;;
12048;SDS011;6085;49.452;8.502;2023-07-02T05:38:32;7.20;;;5.57;;
12048;SDS011;6085;49.452;8.502;2023-07-02T05:42:34;9.55;;;5.40;;
12048;SDS011;6085;49.452;8.502;2023-07-02T05:46:37;6.90;;;5.00;;
12048;SDS011;6085;49.452;8.502;2023-07-02T05:50:39;7.18;;;5.20;;
12048;SDS011;6085;49.452;8.502;2023-07-02T05:54:43;11.68;;;5.47;;
12048;SDS011;6085;49.452;8.502;2023-07-02T05:58:45;7.38;;;5.85;;
12048;SDS011;6085;49.452;8.502;2023-07-02T06:02:47;8.52;;;5.80;;
12048;SDS011;6085;49.452;8.502;2023-07-02T06:06:49;10.23;;;6.13;;
12048;SDS011;6085;49.452;8.502;2023-07-02T06:10:53;7.15;;;5.75;;
12048;SDS011;6085;49.452;8.502;2023-07-02T06:14:55;9.07;;;5.93;;
12048;SDS011;6085;49.452;8.502;2023-07-02T06:18:57;7.70;;;5.75;;
12048;SDS011;6085;49.452;8.502;2023-07-02T06:22:59;8.77;;;6.10;;
12048;SDS011;6085;49.452;8.502;2023-07-02T06:27:02;9.68;;;6.45;;
12048;SDS011;6085;49.452;8.502;2023-07-02T06:31:04;10.52;;;6.32;;
12048;SDS011;6085;49.452;8.502;2023-07-02T06:35:07;8.80;;;6.63;;
12048;SDS011;6085;49.452;8.502;2023-07-02T06:39:09;11.00;;;6.85;;
12048;SDS011;6085;49.452;8.502;2023-07-02T06:43:13;10.75;;;7.10;;
12048;SDS011;6085;49.452;8.502;2023-07-02T06:47:15;10.48;;;7.18;;
12048;SDS011;6085;49.452;8.502;2023-07-02T06:51:17;9.52;;;7.30;;
12048;SDS011;6085;49.452;8.502;2023-07-02T06:55:20;9.18;;;7.38;;
12048;SDS011;6085;49.452;8.502;2023-07-02T06:59:25;9.40;;;6.65;;
12048;SDS011;6085;49.452;8.502;2023-07-02T07:03:27;10.98;;;7.07;;
12048;SDS011;6085;49.452;8.502;2023-07-02T07:07:29;9.70;;;6.97;;
12048;SDS011;6085;49.452;8.502;2023-07-02T07:11:31;9.90;;;6.97;;
12048;SDS011;6085;49.452;8.502;2023-07-02T07:15:34;9.60;;;6.65;;
12048;SDS011;6085;49.452;8.502;2023-07-02T07:19:36;10.48;;;7.40;;
12048;SDS011;6085;49.452;8.502;2023-07-02T07:23:38;10.43;;;7.32;;
12048;SDS011;6085;49.452;8.502;2023-07-02T07:27:41;10.95;;;7.88;;
12048;SDS011;6085;49.452;8.502;2023-07-02T07:31:44;11.18;;;7.35;;
12048;SDS011;6085;49.452;8.502;2023-07-02T07:35:46;10.70;;;9.27;;
12048;SDS011;6085;49.452;8.502;2023-07-02T07:39:48;12.23;;;9.75;;
12048;SDS011;6085;49.452;8.502;2023-07-02T07:43:50;13.57;;;10.27;;
12048;SDS011;6085;49.452;8.502;2023-07-02T07:47:54;11.77;;;9.60;;
12048;SDS011;6085;49.452;8.502;2023-07-02T07:51:56;15.43;;;10.65;;
12048;SDS011;6085;49.452;8.502;2023-07-02T07:55:58;13.65;;;9.82;;
12048;SDS011;6085;49.452;8.502;2023-07-02T08:00:00;15.38;;;10.38;;
12048;SDS011;6085;49.452;8.502;2023-07-02T08:04:05;13.30;;;10.20;;
12048;SDS011;6085;49.452;8.502;2023-07-02T08:08:07;13.52;;;10.50;;
12048;SDS011;6085;49.452;8.502;2023-07-02T08:12:09;14.13;;;9.70;;
12048;SDS011;6085;49.452;8.502;2023-07-02T08:16:11;13.90;;;10.20;;
12048;SDS011;6085;49.452;8.502;2023-07-02T08:20:15;14.10;;;10.50;;
12048;SDS011;6085;49.452;8.502;2023-07-02T08:24:17;14.35;;;10.18;;
12048;SDS011;6085;49.452;8.502;2023-07-02T08:28:19;14.15;;;10.35;;
12048;SDS011;6085;49.452;8.502;2023-07-02T08:32:21;13.95;;;9.82;;
12048;SDS011;6085;49.452;8.502;2023-07-02T08:36:24;13.55;;;10.10;;
12048;SDS011;6085;49.452;8.502;2023-07-02T08:40:26;14.18;;;10.00;;
12048;SDS011;6085;49.452;8.502;2023-07-02T08:44:29;14.13;;;10.20;;
12048;SDS011;6085;49.452;8.502;2023-07-02T08:48:31;11.82;;;9.45;;
12048;SDS011;6085;49.452;8.502;2023-07-02T08:52:34;11.05;;;9.68;;
12048;SDS011;6085;49.452;8.502;2023-07-02T08:56:36;13.27;;;10.38;;
12048;SDS011;6085;49.452;8.502;2023-07-02T09:00:39;15.57;;;11.55;;
12048;SDS011;6085;49.452;8.502;2023-07-02T09:04:41;13.98;;;10.73;;
12048;SDS011;6085;49.452;8.502;2023-07-02T09:08:44;12.80;;;9.65;;
12048;SDS011;6085;49.452;8.502;2023-07-02T09:12:46;14.60;;;9.80;;
12048;SDS011;6085;49.452;8.502;2023-07-02T09:16:48;13.35;;;10.25;;
12048;SDS011;6085;49.452;8.502;2023-07-02T09:20:50;11.85;;;9.90;;
12048;SDS011;6085;49.452;8.502;2023-07-02T09:24:55;14.27;;;10.20;;
12048;SDS011;6085;49.452;8.502;2023-07-02T09:29:01;14.07;;;10.50;;
12048;SDS011;6085;49.452;8.502;2023-07-02T09:33:05;13.20;;;9.52;;
12048;SDS011;6085;49.452;8.502;2023-07-02T09:37:09;14.48;;;9.90;;
12048;SDS011;6085;49.452;8.502;2023-07-02T09:41:12;12.10;;;9.23;;
12048;SDS011;6085;49.452;8.502;2023-07-02T09:45:14;11.52;;;9.38;;
12048;SDS011;6085;49.452;8.502;2023-07-02T09:49:16;13.63;;;10.10;;
12048;SDS011;6085;49.452;8.502;2023-07-02T09:53:22;14.05;;;10.52;;
12048;SDS011;6085;49.452;8.502;2023-07-02T09:57:25;14.48;;;11.20;;
12048;SDS011;6085;49.452;8.502;2023-07-02T10:01:31;13.60;;;10.82;;
12048;SDS011;6085;49.452;8.502;2023-07-02T10:05:33;13.20;;;10.23;;
12048;SDS011;6085;49.452;8.502;2023-07-02T10:09:36;14.57;;;11.20;;
12048;SDS011;6085;49.452;8.502;2023-07-02T10:13:40;14.48;;;10.13;;
12048;SDS011;6085;49.452;8.502;2023-07-02T10:17:42;11.70;;;9.50;;
12048;SDS011;6085;49.452;8.502;2023-07-02T10:22:00;14.10;;;10.60;;
12048;SDS011;6085;49.452;8.502;2023-07-02T10:26:09;14.75;;;10.77;;
12048;SDS011;6085;49.452;8.502;2023-07-02T10:30:14;15.57;;;11.00;;
12048;SDS011;6085;49.452;8.502;2023-07-02T10:34:16;16.25;;;11.55;;
12048;SDS011;6085;49.452;8.502;2023-07-02T10:38:28;12.88;;;10.63;;
12048;SDS011;6085;49.452;8.502;2023-07-02T10:42:30;15.85;;;11.55;;
12048;SDS011;6085;49.452;8.502;2023-07-02T10:46:34;16.63;;;10.48;;
12048;SDS011;6085;49.452;8.502;2023-07-02T10:50:44;17.20;;;11.10;;
12048;SDS011;6085;49.452;8.502;2023-07-02T10:54:46;16.02;;;11.27;;
12048;SDS011;6085;49.452;8.502;2023-07-02T10:58:49;15.30;;;11.02;;
12048;SDS011;6085;49.452;8.502;2023-07-02T11:02:53;15.38;;;10.85;;
12048;SDS011;6085;49.452;8.502;2023-07-02T11:06:55;14.35;;;10.55;;
12048;SDS011;6085;49.452;8.502;2023-07-02T11:11:03;15.52;;;11.45;;
12048;SDS011;6085;49.452;8.502;2023-07-02T11:15:06;13.10;;;11.00;;
12048;SDS011;6085;49.452;8.502;2023-07-02T11:19:10;14.80;;;10.95;;
12048;SDS011;6085;49.452;8.502;2023-07-02T11:23:22;17.38;;;12.30;;
12048;SDS011;6085;49.452;8.502;2023-07-02T11:27:25;17.33;;;11.77;;
12048;SDS011;6085;49.452;8.502;2023-07-02T11:31:26;13.98;;;10.88;;
12048;SDS011;6085;49.452;8.502;2023-07-02T11:35:39;14.80;;;10.43;;
12048;SDS011;6085;49.452;8.502;2023-07-02T11:39:43;16.65;;;11.02;;
12048;SDS011;6085;49.452;8.502;2023-07-02T11:43:45;14.25;;;10.88;;
12048;SDS011;6085;49.452;8.502;2023-07-02T11:47:47;13.48;;;10.30;;
12048;SDS011;6085;49.452;8.502;2023-07-02T11:51:50;12.93;;;10.85;;
12048;SDS011;6085;49.452;8.502;2023-07-02T11:55:52;14.65;;;10.13;;
12048;SDS011;6085;49.452;8.502;2023-07-02T11:59:55;14.50;;;10.43;;
12048;SDS011;6085;49.452;8.502;2023-07-02T12:03:56;15.75;;;11.38;;
12048;SDS011;6085;49.452;8.502;2023-07-02T12:08:01;14.75;;;10.68;;
12048;SDS011;6085;49.452;8.502;2023-07-02T12:12:04;13.52;;;9.63;;
12048;SDS011;6085;49.452;8.502;2023-07-02T12:16:07;14.98;;;10.18;;
12048;SDS011;6085;49.452;8.502;2023-07-02T12:20:09;14.88;;;11.23;;
12048;SDS011;6085;49.452;8.502;2023-07-02T12:24:13;13.30;;;10.05;;
12048;SDS011;6085;49.452;8.502;2023-07-02T12:28:15;18.63;;;10.40;;
12048;SDS011;6085;49.452;8.502;2023-07-02T12:32:17;13.13;;;9.82;;
12048;SDS011;6085;49.452;8.502;2023-07-02T12:36:20;13.63;;;10.43;;
12048;SDS011;6085;49.452;8.502;2023-07-02T12:40:23;15.32;;;11.20;;
12048;SDS011;6085;49.452;8.502;2023-07-02T12:44:25;15.65;;;11.63;;
12048;SDS011;6085;49.452;8.502;2023-07-02T12:48:27;14.57;;;10.93;;
12048;SDS011;6085;49.452;8.502;2023-07-02T12:52:29;14.77;;;11.13;;
12048;SDS011;6085;49.452;8.502;2023-07-02T12:56:32;14.18;;;11.30;;
12048;SDS011;6085;49.452;8.502;2023-07-02T13:00:34;15.30;;;11.00;;
12048;SDS011;6085;49.452;8.502;2023-07-02T13:04:37;16.75;;;11.48;;
12048;SDS011;6085;49.452;8.502;2023-07-02T13:08:40;14.15;;;11.05;;
12048;SDS011;6085;49.452;8.502;2023-07-02T13:12:43;17.17;;;12.27;;
12048;SDS011;6085;49.452;8.502;2023-07-02T13:16:45;15.73;;;10.52;;
12048;SDS011;6085;49.452;8.502;2023-07-02T13:20:47;15.75;;;10.68;;
12048;SDS011;6085;49.452;8.502;2023-07-02T13:24:49;15.27;;;11.30;;
12048;SDS011;6085;49.452;8.502;2023-07-02T13:28:53;14.68;;;11.13;;
12048;SDS011;6085;49.452;8.502;2023-07-02T13:32:55;14.75;;;11.27;;
12048;SDS011;6085;49.452;8.502;2023-07-02T13:36:57;15.73;;;10.48;;
12048;SDS011;6085;49.452;8.502;2023-07-02T13:40:59;16.25;;;11.50;;
12048;SDS011;6085;49.452;8.502;2023-07-02T13:45:03;16.73;;;12.40;;
12048;SDS011;6085;49.452;8.502;2023-07-02T13:49:06;15.38;;;11.30;;
12048;SDS011;6085;49.452;8.502;2023-07-02T13:53:08;12.45;;;10.38;;
12048;SDS011;6085;49.452;8.502;2023-07-02T13:57:10;15.93;;;11.07;;
12048;SDS011;6085;49.452;8.502;2023-07-02T14:01:13;17.88;;;11.88;;
12048;SDS011;6085;49.452;8.502;2023-07-02T14:05:16;14.98;;;10.73;;
12048;SDS011;6085;49.452;8.502;2023-07-02T14:09:18;17.00;;;10.93;;
12048;SDS011;6085;49.452;8.502;2023-07-02T14:13:20;15.50;;;10.77;;
12048;SDS011;6085;49.452;8.502;2023-07-02T14:17:23;15.75;;;11.02;;
12048;SDS011;6085;49.452;8.502;2023-07-02T14:21:28;13.70;;;10.43;;
12048;SDS011;6085;49.452;8.502;2023-07-02T14:25:30;14.75;;;10.05;;
12048;SDS011;6085;49.452;8.502;2023-07-02T14:29:32;14.45;;;11.15;;
12048;SDS011;6085;49.452;8.502;2023-07-02T14:33:38;15.05;;;11.02;;
12048;SDS011;6085;49.452;8.502;2023-07-02T14:37:43;14.20;;;10.93;;
12048;SDS011;6085;49.452;8.502;2023-07-02T14:41:45;14.25;;;10.55;;
12048;SDS011;6085;49.452;8.502;2023-07-02T14:45:48;14.77;;;10.57;;
12048;SDS011;6085;49.452;8.502;2023-07-02T14:49:52;15.00;;;10.60;;
12048;SDS011;6085;49.452;8.502;2023-07-02T14:53:54;15.85;;;11.23;;
12048;SDS011;6085;49.452;8.502;2023-07-02T14:57:57;15.95;;;10.88;;
12048;SDS011;6085;49.452;8.502;2023-07-02T15:01:59;15.75;;;11.30;;
12048;SDS011;6085;49.452;8.502;2023-07-02T15:06:09;15.35;;;11.25;;
12048;SDS011;6085;49.452;8.502;2023-07-02T15:10:13;15.88;;;11.43;;
12048;SDS011;6085;49.452;8.502;2023-07-02T15:14:16;14.02;;;10.07;;
12048;SDS011;6085;49.452;8.502;2023-07-02T15:18:18;14.15;;;10.35;;
12048;SDS011;6085;49.452;8.502;2023-07-02T15:22:22;14.43;;;10.98;;
12048;SDS011;6085;49.452;8.502;2023-07-02T15:26:24;14.98;;;10.90;;
12048;SDS011;6085;49.452;8.502;2023-07-02T15:30:26;13.45;;;10.55;;
12048;SDS011;6085;49.452;8.502;2023-07-02T15:34:28;14.82;;;11.18;;
12048;SDS011;6085;49.452;8.502;2023-07-02T15:38:31;14.35;;;10.35;;
12048;SDS011;6085;49.452;8.502;2023-07-02T15:42:33;13.20;;;10.43;;
12048;SDS011;6085;49.452;8.502;2023-07-02T15:46:36;16.42;;;11.27;;
12048;SDS011;6085;49.452;8.502;2023-07-02T15:50:37;16.95;;;11.05;;
12048;SDS011;6085;49.452;8.502;2023-07-02T15:54:41;15.45;;;10.88;;
12048;SDS011;6085;49.452;8.502;2023-07-02T15:58:43;14.38;;;10.98;;
12048;SDS011;6085;49.452;8.502;2023-07-02T16:02:45;17.65;;;11.60;;
12048;SDS011;6085;49.452;8.502;2023-07-02T16:06:47;15.27;;;11.15;;
12048;SDS011;6085;49.452;8.502;2023-07-02T16:10:50;16.45;;;10.95;;
12048;SDS011;6085;49.452;8.502;2023-07-02T16:14:52;17.17;;;11.65;;
12048;SDS011;6085;49.452;8.502;2023-07-02T16:18:55;15.45;;;11.32;;
12048;SDS011;6085;49.452;8.502;2023-07-02T16:22:57;17.80;;;11.30;;
12048;SDS011;6085;49.452;8.502;2023-07-02T16:27:01;16.35;;;11.40;;
12048;SDS011;6085;49.452;8.502;2023-07-02T16:31:07;18.52;;;11.27;;
12048;SDS011;6085;49.452;8.502;2023-07-02T16:35:10;16.55;;;10.43;;
12048;SDS011;6085;49.452;8.502;2023-07-02T16:39:12;15.40;;;10.98;;
12048;SDS011;6085;49.452;8.502;2023-07-02T16:43:17;13.80;;;10.23;;
12048;SDS011;6085;49.452;8.502;2023-07-02T16:47:18;16.35;;;10.85;;
12048;SDS011;6085;49.452;8.502;2023-07-02T16:51:20;14.85;;;10.23;;
12048;SDS011;6085;49.452;8.502;2023-07-02T16:55:22;13.98;;;10.20;;
12048;SDS011;6085;49.452;8.502;2023-07-02T16:59:26;13.38;;;10.35;;
12048;SDS011;6085;49.452;8.502;2023-07-02T17:03:30;17.27;;;11.32;;
12048;SDS011;6085;49.452;8.502;2023-07-02T17:07:33;14.75;;;11.07;;
12048;SDS011;6085;49.452;8.502;2023-07-02T17:11:35;15.10;;;10.30;;
12048;SDS011;6085;49.452;8.502;2023-07-02T17:15:38;15.85;;;10.90;;
12048;SDS011;6085;49.452;8.502;2023-07-02T17:19:41;13.73;;;10.05;;
12048;SDS011;6085;49.452;8.502;2023-07-02T17:23:44;13.80;;;9.90;;
12048;SDS011;6085;49.452;8.502;2023-07-02T17:27:46;12.82;;;10.52;;
12048;SDS011;6085;49.452;8.502;2023-07-02T17:31:50;15.50;;;10.50;;
12048;SDS011;6085;49.452;8.502;2023-07-02T17:35:53;16.45;;;10.30;;
12048;SDS011;6085;49.452;8.502;2023-07-02T17:39:55;15.15;;;10.30;;
12048;SDS011;6085;49.452;8.502;2023-07-02T17:43:57;14.48;;;9.88;;
12048;SDS011;6085;49.452;8.502;2023-07-02T17:48:02;17.10;;;11.18;;
12048;SDS011;6085;49.452;8.502;2023-07-02T17:52:06;14.55;;;10.57;;
12048;SDS011;6085;49.452;8.502;2023-07-02T17:56:10;17.80;;;10.82;;
12048;SDS011;6085;49.452;8.502;2023-07-02T18:00:13;15.35;;;10.32;;
12048;SDS011;6085;49.452;8.502;2023-07-02T18:04:18;14.93;;;10.18;;
12048;SDS011;6085;49.452;8.502;2023-07-02T18:08:23;14.50;;;10.68;;
12048;SDS011;6085;49.452;8.502;2023-07-02T18:12:25;13.30;;;9.65;;
12048;SDS011;6085;49.452;8.502;2023-07-02T18:16:28;14.85;;;10.02;;
12048;SDS011;6085;49.452;8.502;2023-07-02T18:20:32;15.18;;;10.35;;
12048;SDS011;6085;49.452;8.502;2023-07-02T18:24:34;14.60;;;10.70;;
12048;SDS011;6085;49.452;8.502;2023-07-02T18:28:38;14.90;;;10.07;;
12048;SDS011;6085;49.452;8.502;2023-07-02T18:32:40;14.50;;;9.40;;
12048;SDS011;6085;49.452;8.502;2023-07-02T18:36:43;14.13;;;10.15;;
12048;SDS011;6085;49.452;8.502;2023-07-02T18:40:57;17.98;;;9.80;;
12048;SDS011;6085;49.452;8.502;2023-07-02T18:45:01;13.05;;;8.90;;
12048;SDS011;6085;49.452;8.502;2023-07-02T18:49:03;12.68;;;8.82;;
12048;SDS011;6085;49.452;8.502;2023-07-02T18:53:07;12.00;;;8.07;;
12048;SDS011;6085;49.452;8.502;2023-07-02T18:57:10;14.50;;;8.45;;
12048;SDS011;6085;49.452;8.502;2023-07-02T19:01:12;12.32;;;8.80;;
12048;SDS011;6085;49.452;8.502;2023-07-02T19:05:17;14.50;;;8.82;;
12048;SDS011;6085;49.452;8.502;2023-07-02T19:09:21;12.50;;;8.75;;
12048;SDS011;6085;49.452;8.502;2023-07-02T19:13:22;13.23;;;8.80;;
12048;SDS011;6085;49.452;8.502;2023-07-02T19:17:25;12.02;;;7.75;;
12048;SDS011;6085;49.452;8.502;2023-07-02T19:21:27;14.00;;;8.73;;
12048;SDS011;6085;49.452;8.502;2023-07-02T19:25:30;11.52;;;8.15;;
12048;SDS011;6085;49.452;8.502;2023-07-02T19:29:32;12.13;;;7.78;;
12048;SDS011;6085;49.452;8.502;2023-07-02T19:33:36;13.77;;;8.63;;
12048;SDS011;6085;49.452;8.502;2023-07-02T19:37:41;14.55;;;8.25;;
12048;SDS011;6085;49.452;8.502;2023-07-02T19:41:47;11.95;;;8.23;;
12048;SDS011;6085;49.452;8.502;2023-07-02T19:45:49;11.85;;;8.27;;
12048;SDS011;6085;49.452;8.502;2023-07-02T19:49:52;12.48;;;8.38;;
12048;SDS011;6085;49.452;8.502;2023-07-02T19:53:54;12.70;;;7.85;;
12048;SDS011;6085;49.452;8.502;2023-07-02T19:57:57;13.27;;;7.68;;
12048;SDS011;6085;49.452;8.502;2023-07-02T20:01:59;12.98;;;7.90;;
12048;SDS011;6085;49.452;8.502;2023-07-02T20:06:01;14.10;;;8.23;;
12048;SDS011;6085;49.452;8.502;2023-07-02T20:10:04;12.52;;;8.38;;
12048;SDS011;6085;49.452;8.502;2023-07-02T20:14:08;14.13;;;8.27;;
12048;SDS011;6085;49.452;8.502;2023-07-02T20:18:10;12.52;;;8.10;;
12048;SDS011;6085;49.452;8.502;2023-07-02T20:22:12;15.52;;;8.57;;
12048;SDS011;6085;49.452;8.502;2023-07-02T20:26:14;12.30;;;8.30;;
12048;SDS011;6085;49.452;8.502;2023-07-02T20:30:18;13.63;;;8.27;;
12048;SDS011;6085;49.452;8.502;2023-07-02T20:34:21;15.43;;;8.35;;
12048;SDS011;6085;49.452;8.502;2023-07-02T20:38:23;12.98;;;8.63;;
12048;SDS011;6085;49.452;8.502;2023-07-02T20:42:26;11.13;;;7.68;;
12048;SDS011;6085;49.452;8.502;2023-07-02T20:46:30;11.13;;;7.70;;
12048;SDS011;6085;49.452;8.502;2023-07-02T20:50:33;13.85;;;8.05;;
12048;SDS011;6085;49.452;8.502;2023-07-02T20:54:37;12.95;;;7.75;;
12048;SDS011;6085;49.452;8.502;2023-07-02T20:58:40;12.02;;;8.02;;
12048;SDS011;6085;49.452;8.502;2023-07-02T21:02:43;12.30;;;7.85;;
12048;SDS011;6085;49.452;8.502;2023-07-02T21:06:45;12.95;;;8.52;;
12048;SDS011;6085;49.452;8.502;2023-07-02T21:10:49;14.52;;;8.70;;
12048;SDS011;6085;49.452;8.502;2023-07-02T21:14:51;13.35;;;8.10;;
12048;SDS011;6085;49.452;8.502;2023-07-02T21:18:56;14.77;;;8.35;;
12048;SDS011;6085;49.452;8.502;2023-07-02T21:22:58;14.23;;;8.63;;
12048;SDS011;6085;49.452;8.502;2023-07-02T21:26:59;13.65;;;8.75;;
12048;SDS011;6085;49.452;8.502;2023-07-02T21:31:02;13.60;;;8.68;;
12048;SDS011;6085;49.452;8.502;2023-07-02T21:35:06;15.20;;;8.52;;
12048;SDS011;6085;49.452;8.502;2023-07-02T21:39:10;12.55;;;8.07;;
12048;SDS011;6085;49.452;8.502;2023-07-02T21:43:12;14.40;;;8.05;;
12048;SDS011;6085;49.452;8.502;2023-07-02T21:47:14;11.60;;;7.78;;
12048;SDS011;6085;49.452;8.502;2023-07-02T21:51:17;11.77;;;7.88;;
12048;SDS011;6085;49.452;8.502;2023-07-02T21:55:21;12.88;;;7.88;;
12048;SDS011;6085;49.452;8.502;2023-07-02T21:59:24;12.38;;;7.47;;
12048;SDS011;6085;49.452;8.502;2023-07-02T22:03:26;12.98;;;7.85;;
12048;SDS011;6085;49.452;8.502;2023-07-02T22:07:29;14.00;;;8.20;;
12048;SDS011;6085;49.452;8.502;2023-07-02T22:11:31;11.40;;;8.27;;
12048;SDS011;6085;49.452;8.502;2023-07-02T22:15:33;11.23;;;7.72;;
12048;SDS011;6085;49.452;8.502;2023-07-02T22:19:35;14.07;;;7.95;;
12048;SDS011;6085;49.452;8.502;2023-07-02T22:23:39;12.77;;;7.45;;
12048;SDS011;6085;49.452;8.502;2023-07-02T22:27:42;9.68;;;7.28;;
12048;SDS011;6085;49.452;8.502;2023-07-02T22:31:44;12.60;;;7.68;;
12048;SDS011;6085;49.452;8.502;2023-07-02T22:35:46;14.10;;;8.60;;
12048;SDS011;6085;49.452;8.502;2023-07-02T22:39:50;12.27;;;8.25;;
12048;SDS011;6085;49.452;8.502;2023-07-02T22:43:52;12.90;;;7.82;;
12048;SDS011;6085;49.452;8.502;2023-07-02T22:47:54;11.43;;;7.22;;
12048;SDS011;6085;49.452;8.502;2023-07-02T22:51:56;9.93;;;7.05;;
12048;SDS011;6085;49.452;8.502;2023-07-02T22:56:08;11.93;;;7.22;;
12048;SDS011;6085;49.452;8.502;2023-07-02T23:00:12;12.80;;;7.90;;
12048;SDS011;6085;49.452;8.502;2023-07-02T23:04:15;11.52;;;7.40;;
12048;SDS011;6085;49.452;8.502;2023-07-02T23:08:17;10.45;;;7.03;;
12048;SDS011;6085;49.452;8.502;2023-07-02T23:12:20;9.48;;;6.80;;
12048;SDS011;6085;49.452;8.502;2023-07-02T23:16:22;15.10;;;7.97;;
12048;SDS011;6085;49.452;8.502;2023-07-02T23:20:24;13.63;;;8.30;;
12048;SDS011;6085;49.452;8.502;2023-07-02T23:24:26;13.77;;;8.23;;
12048;SDS011;6085;49.452;8.502;2023-07-02T23:28:30;15.35;;;8.23;;
12048;SDS011;6085;49.452;8.502;2023-07-02T23:32:33;13.75;;;7.68;;
12048;SDS011;6085;49.452;8.502;2023-07-02T23:36:35;13.18;;;8.05;;
12048;SDS011;6085;49.452;8.502;2023-07-02T23:40:37;13.10;;;7.78;;
12048;SDS011;6085;49.452;8.502;2023-07-02T23:44:41;14.45;;;7.95;;
12048;SDS011;6085;49.452;8.502;2023-07-02T23:48:43;12.70;;;7.93;;
12048;SDS011;6085;49.452;8.502;2023-07-02T23:52:45;16.90;;;8.10;;
12048;SDS011;6085;49.452;8.502;2023-07-02T23:56:48;12.50;;;7.88;;
